Aérodrome :
LOGIN :

S'inscrire | Disclaimer

   EN    FR    IT 

 










Légende :    VFR   VFR Marginal   IFR   IFR Intensif   IFR Très Intensif
Visi : 
Plafond : 
>= 8 km
>= 3000ft
5 à 8 km
1000 à 3000 ft
1500m à 5 km
500 à 1000 ft
800 à 1500m
200 à 500 ft
< 800m
< 200 ft
Symboles :   Orages  Brouillard  Fortes neiges  Fortes précipitations  Vent > 20 kt
SIGMETs :   Divers  Orages  Givrage  Turbulence  Onde Orograph.  Cendres Volcan.







- Altitude de l'aérodrome : 56 ft
- Code IATA : ILY
- Voir les cartes d'approche


EGPI - Islay

DERNIER METAR :
  • 170720Z 27022KT 9999 -RA FEW012 SCT016 12/11 Q1004

METARs EXPIRÉS :
  • 170650Z AUTO 26022KT 9999 SCT016/// SCT020/// 12/11 Q1003
  • 170620Z AUTO 27024KT 9999 SCT010/// BKN016/// 12/11 Q1003
  • 170550Z AUTO 26026KT 9999 BKN009/// BKN018/// 13/12 Q1002
  • 170520Z AUTO 26027KT 9999 SCT011/// BKN018/// 13/11 Q1001 RERA
  • 170450Z AUTO 25028KT 9999 BKN011/// SCT024/// 13/12 Q1001 RERA

TAF TAF EGPI
Valide du 17 à 06h jusqu'au 17 à 15h UTC


170459Z 1706/1715 28025G35KT 9999 FEW008 SCT018
PROB30
TEMPO 1706/1708 4000 -RADZ BKN009
BECMG 1708/1711 31015KT
PROB30
TEMPO 1708/1715 8000 SHRA BKN014
Pas de NOTAMs connus pour ce terrain.
4 SIGMETs publiés pour la FIR Scottish (EGPX) :
 
Turbulence forte
EGPX SIGMET 06 VALID 170553/170900 EGRR
EGPX SCOTTISH FIR SEV TURB FCST E OF LINE N6100 W00800 - N5350 W00800 SFC/FL060 MOV E 15KT NC=
Annulation du SIGMET 04
EGPX SIGMET 05 VALID 170549/170900 EGRR
EGPX SCOTTISH FIR CNL SIGMET 04 170500/170900=
SIGMET 04  ANNULÉ :
Turbulence forte
EGPX SIGMET 04 VALID 170500/170900 EGRR
EGPX SCOTTISH FIR SEV TURB FCST E OF LINE N6100 W00815 - N5520 W00815 SFC/FL060 MOV E 15KT NC=
Onde orographique forte
EGPX SIGMET 03 VALID 170500/170900 EGRR
EGPX SCOTTISH FIR SEV MTW FCST WI N5500 E00115 - N5500 W00530 - N5355 W00530 - N5425 W00810 - N6100 W00810 - N6100 E00000 - N6000 E00000 - N5914 E00117 - N5500 E00115 FL030/200 STNR WKN=



MET'MAP, la Météo Aéronautique d'un coup d'oeil ! - Copyright ORBIFLY Décembre 2007 - Disclaimer

ORBIFLY MET'MAP TEAM :

Programmation & Développement : Alexandra Zaïnal
Conception & Développement : Baudouin d'Aumeries
Co-Programmation & Développement : Marc-Olivier Méhu
Soutien technique & logistique : Manuel Goepfert

Contact : metmap@orbifly.com




SOURCES & CREDITS :

   NOAA